Flight Track Log - Related Links

Times and Time Zones

All times are in EDT time to prevent confusion due to time zone crossing. See the SKW2696 flight status page for this flight to view local times or setup timezone preferences in your user account.

Time Position Orientation Groundspeed Altitude Reporting Facility
EDT Latitude Longitude Course Direction KTS MPH feet Rate Location/Type
Mon 06:32:10 PM 33.9333 -118.4833 North 232 267 3,100  Level Southern California TRACON
Mon 06:33:10 PM 33.9167 -118.5667 256° West 264 304 6,300 2,900 Climbing Southern California TRACON
Mon 06:34:10 PM 33.9500 -118.6500 296° West 272 313 8,900 1,385 Climbing Southern California TRACON
Mon 06:35:07 PM 34.0028 -118.6836 332° Northwest 259 298 9,000 50 Climbing Los Angeles Center
Mon 06:36:09 PM 34.0731 -118.6678 11° North 260 299 9,000 145 Level Los Angeles Center
Mon 06:37:00 PM 34.2767 -118.6000 North  Level FlightAware Approximate
Mon 06:37:11 PM 34.1350 -118.6422 19° North 253 291 9,300  Level Los Angeles Center
Mon 06:38:13 PM 34.2031 -118.6117 20° North 258 297 12,700 2,806 Climbing Los Angeles Center
Mon 06:39:15 PM 34.2797 -118.6153 358° North 232 267 15,100 1,839 Climbing Los Angeles Center
Mon 06:40:17 PM 34.3492 -118.6369 346° North 258 297 16,500 1,645 Climbing Los Angeles Center
Mon 06:41:19 PM 34.4172 -118.6692 339° North 264 304 18,500 1,839 Climbing Los Angeles Center
Mon 06:42:21 PM 34.4867 -118.7050 337° Northwest 269 310 20,300 1,756 Climbing Los Angeles Center
Mon 06:43:22 PM 34.5583 -118.7389 339° North 276 318 22,100 1,756 Climbing Los Angeles Center
Mon 06:44:24 PM 34.6253 -118.7714 338° Northwest 260 299 23,900 919 Climbing Los Angeles Center
Mon 06:45:26 PM 34.7083 -118.8111 339° North 267 307 24,000 48 Climbing Los Angeles Center
Mon 06:46:28 PM 34.7886 -118.8222 354° North 288 331 24,000  Level Los Angeles Center
Mon 06:47:30 PM 34.8681 -118.8350 352° North 289 333 24,000  Level Los Angeles Center
Mon 06:48:32 PM 34.9381 -118.8450 353° North 279 321 24,000  Level Los Angeles Center
Mon 06:49:34 PM 35.0239 -118.8583 353° North 261 300 24,000  Level Los Angeles Center
Mon 06:50:35 PM 35.0950 -118.8717 351° North 259 298 24,000  Level Los Angeles Center
Mon 06:51:37 PM 35.1653 -118.8828 353° North 256 295 24,000  Level Los Angeles Center
Mon 06:52:39 PM 35.2364 -118.8944 352° North 259 298 24,000  Level Los Angeles Center
Mon 06:53:41 PM 35.3044 -118.9058 352° North 250 288 24,000  Level Los Angeles Center
Mon 06:54:43 PM 35.3744 -118.9181 352° North 251 289 24,000 97 Level Los Angeles Center
Mon 06:55:45 PM 35.4564 -118.9319 352° North 248 285 24,200 484 Climbing Los Angeles Center
Mon 06:56:47 PM 35.5242 -118.9436 352° North 247 284 25,000 390 Climbing Los Angeles Center
Mon 06:57:48 PM 35.5931 -118.9550 352° North 250 288 25,000  Level Los Angeles Center
Mon 06:58:50 PM 35.6597 -118.9658 352° North 244 281 25,000  Level Los Angeles Center
Mon 06:59:20 PM 35.7003 -118.9722 353° North 247 284 25,000 593 Level Oakland Center
Mon 07:00:21 PM 35.7664 -118.9850 351° North 243 280 25,900 934 Climbing Oakland Center
Mon 07:01:22 PM 35.8342 -118.9953 353° North 245 282 26,900 984 Climbing Oakland Center
Mon 07:02:23 PM 35.9061 -118.9828 North 264 304 27,900 878 Climbing Oakland Center
Mon 07:03:25 PM 35.9781 -118.9911 355° North 259 298 28,700 732 Climbing Oakland Center
Mon 07:04:26 PM 36.0506 -119.0028 353° North 264 304 29,400 689 Climbing Oakland Center
Mon 07:05:27 PM 36.1242 -119.0167 351° North 268 308 30,100 689 Climbing Oakland Center
Mon 07:06:28 PM 36.1981 -119.0292 352° North 268 308 30,800 689 Climbing Oakland Center
Mon 07:07:29 PM 36.2703 -119.0422 352° North 266 306 31,500 590 Climbing Oakland Center
Mon 07:08:30 PM 36.3428 -119.0544 352° North 265 305 32,000 246 Climbing Oakland Center
Mon 07:09:31 PM 36.4172 -119.0683 351° North 270 311 32,000  Level Oakland Center
Mon 07:10:32 PM 36.5136 -119.0869 351° North 291 335 32,000  Level Oakland Center
Mon 07:11:33 PM 36.5928 -119.0997 353° North 288 331 32,000  Level Oakland Center
Mon 07:12:34 PM 36.6744 -119.1153 351° North 295 339 32,000  Level Oakland Center
Mon 07:13:35 PM 36.7544 -119.1306 351° North 294 338 32,000  Level Oakland Center
Mon 07:14:36 PM 36.8350 -119.1461 351° North 293 337 32,000  Level Oakland Center
Mon 07:15:37 PM 36.9158 -119.1614 351° North 294 338 32,000  Level Oakland Center
Mon 07:16:38 PM 36.9978 -119.1756 352° North 299 344 32,000  Level Oakland Center
Mon 07:17:39 PM 37.0797 -119.1922 351° North 299 344 32,000  Level Oakland Center
Mon 07:18:40 PM 37.1619 -119.2083 351° North 300 345 32,000  Level Oakland Center
Mon 07:19:41 PM 37.2444 -119.2217 353° North 301 346 32,000 -197 Level Oakland Center
Mon 07:20:42 PM 37.3294 -119.2439 348° North 310 357 31,600 -787 Descending Oakland Center
Mon 07:21:43 PM 37.4319 -119.2803 344° North 321 369 30,400 -787 Descending Oakland Center
Mon 07:22:44 PM 37.5158 -119.3097 344° North 317 365 30,000 -393 Descending Oakland Center
Mon 07:23:45 PM 37.5953 -119.3383 344° North 300 345 29,600 -689 Descending Oakland Center
Mon 07:24:46 PM 37.6714 -119.3581 348° North 284 327 28,600 -984 Descending Oakland Center
Mon 07:25:47 PM 37.7472 -119.3850 344° North 283 326 27,600 -984 Descending Oakland Center
Mon 07:26:48 PM 37.8231 -119.4136 343° North 284 327 26,600 -1,033 Descending Oakland Center
Mon 07:27:49 PM 37.9008 -119.4381 346° North 286 329 25,500 -984 Descending Oakland Center
Mon 07:28:50 PM 37.9833 -119.4672 344° North 301 346 24,600 -738 Descending Oakland Center
Mon 07:29:51 PM 38.0653 -119.4958 345° North 306 352 24,000 -295 Descending Oakland Center
Mon 07:30:52 PM 38.1436 -119.5233 345° North 297 342 24,000  Level Oakland Center
Mon 07:31:53 PM 38.2169 -119.5517 343° North 284 327 24,000  Level Oakland Center
Mon 07:32:54 PM 38.2925 -119.5789 344° North 284 327 24,000 -393 Level Oakland Center
Mon 07:33:55 PM 38.3664 -119.6058 344° North 277 319 23,200 -934 Descending Oakland Center
Mon 07:34:56 PM 38.4439 -119.6336 344° North 263 303 22,100 -1,033 Descending Oakland Center
Mon 07:35:57 PM 38.5100 -119.6575 344° North 250 288 21,100 -1,033 Descending Oakland Center
Mon 07:36:58 PM 38.5717 -119.6803 344° North 234 269 20,000 -1,131 Descending Oakland Center
Mon 07:37:59 PM 38.6375 -119.7042 344° North 241 277 18,800 -1,180 Descending Oakland Center
Mon 07:39:00 PM 38.7039 -119.7289 344° North 248 285 17,600 -1,180 Descending Oakland Center
Mon 07:40:01 PM 38.7703 -119.7536 344° North 248 285 16,400 -1,180 Descending Oakland Center
Mon 07:41:02 PM 38.8406 -119.7683 351° North 259 298 15,200 -1,230 Descending Oakland Center
Mon 07:42:03 PM 38.9117 -119.7706 359° North 256 295 13,900 -1,869 Descending Oakland Center
Mon 07:43:04 PM 38.9797 -119.7703 360° North 248 285 11,400 -1,672 Descending Oakland Center
Mon 07:44:05 PM 39.0633 -119.7692 North 248 285 10,500 -738 Descending Oakland Center
Mon 07:45:06 PM 39.1314 -119.7697 360° North 247 284 9,900 -492 Descending Oakland Center
Mon 07:46:07 PM 39.1950 -119.7681 North 240 276 9,500 -585 Descending Oakland Center
Mon 07:47:09 PM 39.2553 -119.7672 North 230 265 8,700 -488 Descending Oakland Center
Mon 07:48:10 PM 39.3153 -119.7678 360° North 223 257 8,500 -789 Descending Oakland Center
Mon 07:50:04 PM 39.4000 -119.7667 North 148 170 6,400 -1,034 Descending Northern Cal TRACON
Mon 07:51:04 PM 39.4500 -119.7667 360° North 130 150 5,500 -842 Descending Northern Cal TRACON
Mon 07:51:58 PM 39.4833 -119.7667 360° North 133 153 4,800 -778 Descending Northern Cal TRACON
Mon 07:53:00 PM 39.4991 -119.7681 North  Level Estimated

Login

Don't have an account? Register now (free) for customized features, flight alerts, and more!